createdAt,value
2019-05-02T00:01:05.295Z,39.10
2019-05-02T00:03:36.007Z,37.85
2019-05-02T00:06:07.455Z,39.27
2019-05-02T00:08:37.392Z,42.23
2019-05-02T00:11:06.817Z,43.13
2019-05-02T00:13:36.154Z,38.35
2019-05-02T00:16:09.079Z,38.75
2019-05-02T00:18:37.081Z,37.80
2019-05-02T00:21:07.871Z,43.20
2019-05-02T00:23:37.014Z,43.20
2019-05-02T00:26:06.097Z,44.27
2019-05-02T00:28:35.175Z,44.98
2019-05-02T00:31:07.414Z,43.63
2019-05-02T00:33:35.939Z,44.35
2019-05-02T00:36:05.542Z,44.85
2019-05-02T00:38:38.620Z,44.63
2019-05-02T00:41:05.533Z,44.05
2019-05-02T00:43:36.347Z,45.20
2019-05-02T00:46:05.665Z,46.18
2019-05-02T00:48:36.369Z,53.83
2019-05-02T00:51:05.527Z,43.68
2019-05-02T00:53:34.619Z,48.30
2019-05-02T00:56:05.088Z,43.92
2019-05-02T00:58:34.664Z,46.20
2019-05-02T01:01:12.350Z,46.23
2019-05-02T01:03:47.223Z,45.35
2019-05-02T01:06:14.483Z,48.17
2019-05-02T01:08:44.798Z,47.83
2019-05-02T01:11:14.022Z,52.88
2019-05-02T01:13:43.081Z,47.05
2019-05-02T01:16:15.172Z,52.20
2019-05-02T01:18:43.462Z,47.20
2019-05-02T01:21:12.544Z,54.77
2019-05-02T01:23:41.602Z,51.15
2019-05-02T01:26:12.332Z,52.25
2019-05-02T01:28:59.594Z,48.90
2019-05-02T01:31:49.902Z,53.75
2019-05-02T01:34:19.382Z,53.58
2019-05-02T01:36:50.298Z,57.00
2019-05-02T01:39:19.384Z,48.63
2019-05-02T01:41:48.650Z,48.10
2019-05-02T01:44:17.720Z,53.83
2019-05-02T01:46:46.801Z,51.70
2019-05-02T01:49:16.810Z,53.55
2019-05-02T01:51:49.279Z,52.20
2019-05-02T01:54:18.131Z,51.53
2019-05-02T01:56:47.219Z,48.73
2019-05-02T01:59:16.295Z,51.73
2019-05-02T02:01:45.440Z,56.98
2019-05-02T02:04:16.295Z,58.25
2019-05-02T02:06:45.543Z,57.93
2019-05-02T02:09:14.605Z,57.13
2019-05-02T02:11:43.747Z,55.23
2019-05-02T02:14:17.980Z,55.30
2019-05-02T02:16:43.605Z,57.60
2019-05-02T02:19:17.242Z,56.98
2019-05-02T02:22:04.380Z,53.65
2019-05-02T02:24:38.514Z,56.85
2019-05-02T02:27:09.263Z,52.67
2019-05-02T02:29:39.167Z,57.33
2019-05-02T02:32:09.263Z,54.23
2019-05-02T02:34:38.362Z,58.25
2019-05-02T02:37:12.475Z,60.20
2019-05-02T02:39:38.245Z,55.15
2019-05-02T02:42:07.395Z,60.73
2019-05-02T02:44:52.918Z,55.20
2019-05-02T02:47:24.933Z,59.38
2019-05-02T02:49:56.023Z,58.78
2019-05-02T02:52:24.968Z,60.88
2019-05-02T02:54:54.052Z,63.10
2019-05-02T02:57:27.928Z,63.13
2019-05-02T03:00:06.417Z,59.42
2019-05-02T03:02:24.802Z,59.58
2019-05-02T03:04:54.046Z,59.67
2019-05-02T03:07:25.618Z,65.83
2019-05-02T03:09:59.554Z,63.48
2019-05-02T03:12:27.217Z,64.00
2019-05-02T03:15:01.132Z,63.38
2019-05-02T03:17:30.248Z,64.70
2019-05-02T03:20:01.761Z,63.15
2019-05-02T03:22:35.047Z,62.40
2019-05-02T03:25:00.975Z,64.42
2019-05-02T03:27:36.967Z,67.50
2019-05-02T03:30:01.016Z,61.95
2019-05-02T03:32:35.242Z,63.87
2019-05-02T03:35:01.440Z,60.98
2019-05-02T03:37:31.559Z,62.60
2019-05-02T03:40:00.895Z,64.80
2019-05-02T03:42:30.168Z,65.85
2019-05-02T03:45:04.382Z,61.53
2019-05-02T03:47:30.044Z,63.35
2019-05-02T03:49:59.760Z,63.75
2019-05-02T03:52:29.708Z,62.50
2019-05-02T03:54:59.098Z,62.58
2019-05-02T03:57:33.596Z,62.85
2019-05-02T03:59:59.078Z,63.95
2019-05-02T04:02:28.380Z,62.85
2019-05-02T04:05:00.559Z,61.42
2019-05-02T04:07:39.795Z,63.28
2019-05-02T04:10:00.246Z,60.55
2019-05-02T04:12:32.779Z,74.50
2019-05-02T04:15:00.816Z,60.03
2019-05-02T04:17:35.297Z,60.55
2019-05-02T04:20:09.405Z,60.85
2019-05-02T04:22:33.118Z,63.17
2019-05-02T04:25:06.097Z,62.00
2019-05-02T04:27:34.212Z,60.03
2019-05-02T04:30:11.262Z,61.45
2019-05-02T04:32:42.766Z,62.53
2019-05-02T04:35:09.567Z,63.63
2019-05-02T04:37:41.110Z,60.33
2019-05-02T04:40:12.288Z,60.25
2019-05-02T04:42:40.372Z,55.40
2019-05-02T04:45:21.750Z,54.95
2019-05-02T04:47:42.573Z,53.78
2019-05-02T04:50:17.820Z,57.10
2019-05-02T04:52:48.265Z,58.48
2019-05-02T04:55:21.324Z,55.43
2019-05-02T04:57:47.076Z,57.85
2019-05-02T05:00:18.415Z,57.95
2019-05-02T05:02:48.405Z,55.05
2019-05-02T05:05:25.676Z,53.30
2019-05-02T05:07:49.518Z,55.15
2019-05-02T05:10:18.744Z,53.42
2019-05-02T05:12:48.084Z,57.67
2019-05-02T05:15:33.721Z,54.30
2019-05-02T05:17:50.039Z,53.25
2019-05-02T05:20:18.924Z,51.90
2019-05-02T05:22:48.070Z,53.42
2019-05-02T05:25:21.716Z,51.45
2019-05-02T05:27:52.570Z,54.20
2019-05-02T05:30:21.577Z,52.75
2019-05-02T05:32:50.731Z,51.02
2019-05-02T05:35:19.802Z,51.77
2019-05-02T05:37:52.918Z,52.58
2019-05-02T05:40:22.506Z,53.00
2019-05-02T05:42:50.559Z,51.92
2019-05-02T05:45:19.698Z,53.00
2019-05-02T05:47:52.486Z,52.58
2019-05-02T05:50:19.662Z,52.20
2019-05-02T05:52:51.752Z,50.30
2019-05-02T05:55:24.080Z,47.00
2019-05-02T05:57:59.970Z,50.05
2019-05-02T06:00:23.134Z,45.43
2019-05-02T06:02:56.208Z,49.00
2019-05-02T06:05:22.978Z,49.33
2019-05-02T06:07:52.143Z,47.75
2019-05-02T06:10:21.235Z,47.30
2019-05-02T06:12:50.309Z,49.55
2019-05-02T06:15:19.383Z,52.50
2019-05-02T06:17:48.495Z,51.15
2019-05-02T06:20:17.767Z,50.23
2019-05-02T06:22:46.845Z,55.05
2019-05-02T06:25:16.641Z,59.25
2019-05-02T06:27:45.918Z,50.28
2019-05-02T06:30:15.611Z,52.65
2019-05-02T06:32:44.665Z,50.80
2019-05-02T06:35:17.214Z,51.90
2019-05-02T06:37:45.350Z,50.88
2019-05-02T06:40:15.893Z,49.35
2019-05-02T06:42:44.960Z,52.90
2019-05-02T06:45:15.273Z,55.28
2019-05-02T06:47:44.333Z,56.92
2019-05-02T06:50:14.081Z,55.45
2019-05-02T06:52:43.218Z,58.85
2019-05-02T06:55:12.721Z,54.98
2019-05-02T06:57:41.781Z,51.92
2019-05-02T07:00:11.778Z,57.95
2019-05-02T07:02:40.836Z,53.98
2019-05-02T07:05:10.678Z,57.55
2019-05-02T07:07:39.806Z,54.23
2019-05-02T07:10:09.229Z,52.78
2019-05-02T07:12:38.610Z,54.63
2019-05-02T07:15:11.093Z,54.67
2019-05-02T07:17:41.963Z,53.70
2019-05-02T07:20:11.526Z,54.48
2019-05-02T07:22:40.941Z,53.05
2019-05-02T07:25:10.578Z,54.08
2019-05-02T07:27:39.646Z,53.73
2019-05-02T07:30:11.026Z,50.15
2019-05-02T07:32:40.074Z,51.55
2019-05-02T07:35:09.712Z,49.73
2019-05-02T07:37:38.792Z,54.10
2019-05-02T07:40:12.057Z,51.95
2019-05-02T07:42:41.960Z,47.20
2019-05-02T07:45:11.439Z,49.95
2019-05-02T07:47:42.409Z,50.75
2019-05-02T07:50:12.096Z,49.98
2019-05-02T07:52:41.503Z,49.30
2019-05-02T07:55:11.107Z,50.03
2019-05-02T07:57:40.305Z,50.30
2019-05-02T08:00:10.783Z,46.77
2019-05-02T08:02:39.873Z,45.15
2019-05-02T08:05:09.296Z,48.60
2019-05-02T08:07:38.385Z,45.03
2019-05-02T08:10:07.927Z,45.52
2019-05-02T08:12:37.069Z,47.48
2019-05-02T08:15:13.329Z,46.95
2019-05-02T08:17:40.376Z,47.78
2019-05-02T08:20:13.595Z,48.45
2019-05-02T08:22:44.046Z,46.53
2019-05-02T08:25:11.875Z,48.28
2019-05-02T08:27:42.617Z,42.90
2019-05-02T08:30:14.551Z,46.83
2019-05-02T08:32:44.126Z,46.40
2019-05-02T08:35:13.547Z,46.92
2019-05-02T08:37:43.111Z,50.28
2019-05-02T08:40:12.540Z,44.60
2019-05-02T08:42:41.634Z,44.48
2019-05-02T08:45:11.151Z,44.58
2019-05-02T08:47:40.252Z,44.60
2019-05-02T08:50:09.794Z,45.23
2019-05-02T08:52:42.395Z,46.95
2019-05-02T08:55:11.084Z,45.48
2019-05-02T08:57:40.280Z,52.33
2019-05-02T09:00:12.762Z,47.95
2019-05-02T09:02:42.188Z,47.85
2019-05-02T09:05:11.522Z,46.37
2019-05-02T09:07:42.907Z,44.77
2019-05-02T09:10:12.038Z,47.78
2019-05-02T09:12:45.094Z,45.23
2019-05-02T09:15:12.660Z,47.40
2019-05-02T09:17:44.693Z,47.73
2019-05-02T09:20:18.734Z,50.05
2019-05-02T09:22:46.632Z,47.70
2019-05-02T09:25:16.560Z,44.23
2019-05-02T09:27:45.639Z,41.45
2019-05-02T09:30:17.075Z,47.20
2019-05-02T09:32:46.158Z,47.27
2019-05-02T09:35:15.262Z,49.23
2019-05-02T09:37:44.468Z,50.40
2019-05-02T09:40:16.634Z,47.55
2019-05-02T09:42:47.611Z,47.50
2019-05-02T09:45:18.059Z,49.40
2019-05-02T09:47:57.348Z,45.05
2019-05-02T09:50:20.697Z,47.58
2019-05-02T09:52:48.765Z,44.70
2019-05-02T09:55:18.303Z,47.70
2019-05-02T09:57:47.461Z,43.38
2019-05-02T10:00:36.281Z,42.15
2019-05-02T10:03:04.594Z,43.13
2019-05-02T10:05:33.865Z,41.45
2019-05-02T10:08:06.867Z,45.78
2019-05-02T10:10:37.270Z,43.33
2019-05-02T10:13:06.697Z,44.93
2019-05-02T10:15:35.858Z,45.30
2019-05-02T10:18:10.519Z,43.40
2019-05-02T10:20:37.546Z,39.23
2019-05-02T10:23:11.366Z,41.45
2019-05-02T10:25:38.837Z,39.75
2019-05-02T10:28:10.199Z,40.52
2019-05-02T10:30:39.713Z,38.63
2019-05-02T10:33:08.876Z,36.05
2019-05-02T10:35:41.475Z,36.23
2019-05-02T10:38:17.599Z,36.53
2019-05-02T10:40:42.446Z,38.98
2019-05-02T10:43:11.917Z,37.90
2019-05-02T10:45:47.273Z,37.42
2019-05-02T10:48:24.775Z,36.13
2019-05-02T10:50:46.219Z,37.63
2019-05-02T10:53:15.824Z,34.58
2019-05-02T10:55:45.650Z,37.90
2019-05-02T10:58:14.710Z,36.55
2019-05-02T11:00:45.465Z,30.70
2019-05-02T11:03:25.554Z,29.90
2019-05-02T11:05:57.852Z,32.65
2019-05-02T11:08:27.230Z,32.13
2019-05-02T11:10:56.320Z,33.45
2019-05-02T11:13:36.261Z,31.15
2019-05-02T11:16:22.204Z,30.45
2019-05-02T11:18:52.986Z,31.40
2019-05-02T11:21:22.867Z,32.73
2019-05-02T11:23:52.901Z,30.23
2019-05-02T11:26:24.989Z,29.45
2019-05-02T11:28:53.049Z,27.55
2019-05-02T11:31:22.448Z,28.50
2019-05-02T11:33:53.142Z,26.45
2019-05-02T11:36:22.753Z,25.72
2019-05-02T11:38:58.953Z,23.73
2019-05-02T11:41:22.822Z,23.18
2019-05-02T11:43:55.519Z,22.10
2019-05-02T11:46:22.721Z,22.70
2019-05-02T11:48:56.208Z,22.90
2019-05-02T11:51:22.832Z,22.50
2019-05-02T11:53:52.831Z,22.32
2019-05-02T11:56:22.410Z,24.43
2019-05-02T11:58:52.845Z,20.02
2019-05-02T12:01:35.465Z,21.25
2019-05-02T12:03:53.253Z,19.23
2019-05-02T12:06:22.721Z,17.65
2019-05-02T12:08:52.602Z,15.50
2019-05-02T12:11:22.868Z,16.55
2019-05-02T12:13:56.822Z,13.45
2019-05-02T12:16:23.415Z,13.62
2019-05-02T12:18:53.816Z,12.88
2019-05-02T12:21:23.443Z,14.55
2019-05-02T12:23:52.976Z,28.07
2019-05-02T12:26:22.321Z,35.40
2019-05-02T12:28:52.630Z,31.42
2019-05-02T12:31:27.292Z,33.73
2019-05-02T12:33:57.191Z,33.98
2019-05-02T12:36:26.291Z,33.60
2019-05-02T12:38:55.388Z,33.02
2019-05-02T12:41:25.294Z,32.70
2019-05-02T12:43:54.678Z,33.23
2019-05-02T12:46:23.748Z,34.05
2019-05-02T12:48:52.847Z,30.25
2019-05-02T12:51:22.651Z,31.87
2019-05-02T12:53:52.852Z,30.43
2019-05-02T12:56:22.901Z,28.23
2019-05-02T12:58:53.101Z,30.00
2019-05-02T13:01:22.387Z,29.27
2019-05-02T13:03:53.152Z,29.42
2019-05-02T13:06:22.220Z,29.35
2019-05-02T13:08:52.576Z,30.62
2019-05-02T13:11:37.012Z,29.57
2019-05-02T13:14:03.961Z,27.32
2019-05-02T13:16:33.703Z,26.75
2019-05-02T13:19:06.206Z,27.22
2019-05-02T13:21:42.156Z,26.70
2019-05-02T13:24:16.196Z,24.95
2019-05-02T13:26:43.021Z,26.15
2019-05-02T13:29:12.100Z,26.55
2019-05-02T13:31:45.883Z,27.65
2019-05-02T13:34:16.680Z,26.10
2019-05-02T13:36:51.889Z,25.35
2019-05-02T13:39:41.843Z,27.27
2019-05-02T13:42:12.566Z,26.37
2019-05-02T13:44:49.662Z,26.60
2019-05-02T13:47:21.841Z,25.08
2019-05-02T13:49:54.755Z,25.43
2019-05-02T13:52:22.639Z,25.92
2019-05-02T13:54:52.316Z,24.77
2019-05-02T13:57:21.906Z,25.43
2019-05-02T13:59:52.562Z,26.10
2019-05-02T14:02:42.795Z,27.20
2019-05-02T14:05:14.563Z,23.35
2019-05-02T14:07:48.150Z,25.45
2019-05-02T14:10:39.199Z,23.98
2019-05-02T14:13:07.298Z,23.15
2019-05-02T14:15:38.043Z,22.62
2019-05-02T14:18:07.293Z,24.27
2019-05-02T14:20:37.528Z,21.60
2019-05-02T14:23:07.181Z,20.88
2019-05-02T14:25:36.265Z,18.50
2019-05-02T14:28:05.458Z,16.17
2019-05-02T14:30:39.960Z,18.92
2019-05-02T14:33:07.246Z,16.12
2019-05-02T14:35:37.588Z,14.85
2019-05-02T14:38:09.941Z,15.25
2019-05-02T14:40:45.690Z,17.95
2019-05-02T14:43:16.453Z,15.10
2019-05-02T14:45:45.536Z,13.13
2019-05-02T14:48:21.456Z,13.50
2019-05-02T14:50:48.208Z,11.53
2019-05-02T14:53:22.123Z,13.50
2019-05-02T14:55:49.174Z,16.00
2019-05-02T14:58:17.954Z,17.23
2019-05-02T15:00:48.510Z,15.77
2019-05-02T15:03:19.206Z,13.80
2019-05-02T15:05:47.863Z,15.17
2019-05-02T15:08:16.706Z,14.60
2019-05-02T15:10:53.000Z,15.27
2019-05-02T15:13:16.017Z,14.97
2019-05-02T15:15:44.965Z,13.67
2019-05-02T15:18:17.476Z,11.47
2019-05-02T15:20:44.572Z,12.82
2019-05-02T15:23:19.602Z,14.80
2019-05-02T15:25:47.053Z,15.75
2019-05-02T15:28:22.859Z,14.70
2019-05-02T15:31:11.796Z,15.65
2019-05-02T15:33:42.731Z,14.50
2019-05-02T15:36:13.452Z,11.30
2019-05-02T15:38:47.283Z,13.53
2019-05-02T15:41:15.384Z,12.33
2019-05-02T15:43:44.494Z,12.20
2019-05-02T15:46:17.327Z,11.30
2019-05-02T15:48:44.689Z,11.03
2019-05-02T15:51:13.614Z,14.40
2019-05-02T15:54:06.077Z,10.80
2019-05-02T15:56:29.593Z,9.20
2019-05-02T15:59:03.392Z,10.00
2019-05-02T16:01:48.725Z,9.13
2019-05-02T16:04:24.054Z,8.60
2019-05-02T16:06:50.110Z,9.60
2019-05-02T16:09:36.679Z,7.93
2019-05-02T16:12:06.493Z,5.03
2019-05-02T16:14:36.059Z,6.00
2019-05-02T16:17:05.334Z,5.23
2019-05-02T16:19:35.747Z,4.20
2019-05-02T16:22:08.012Z,1.80
2019-05-02T16:24:36.972Z,1.97
2019-05-02T16:27:05.924Z,1.60
2019-05-02T16:29:34.696Z,3.03
2019-05-02T16:32:05.638Z,1.70
2019-05-02T16:34:36.148Z,2.43
2019-05-02T16:37:15.473Z,4.27
2019-05-02T16:39:42.630Z,2.57
2019-05-02T16:42:12.291Z,4.43
2019-05-02T16:44:42.913Z,4.67
2019-05-02T16:47:13.893Z,6.47
2019-05-02T16:49:43.202Z,5.92
2019-05-02T16:52:13.135Z,7.10
2019-05-02T16:54:43.826Z,7.28
2019-05-02T16:57:17.503Z,5.58
2019-05-02T16:59:43.848Z,8.70
2019-05-02T17:02:12.967Z,6.17
2019-05-02T17:04:42.739Z,7.15
2019-05-02T17:07:13.584Z,6.60
2019-05-02T17:09:43.996Z,8.93
2019-05-02T17:12:15.264Z,8.03
2019-05-02T17:14:51.598Z,7.23
2019-05-02T17:17:15.451Z,6.80
2019-05-02T17:19:44.521Z,10.15
2019-05-02T17:22:16.614Z,9.58
2019-05-02T17:24:44.443Z,8.48
2019-05-02T17:27:20.406Z,9.93
2019-05-02T17:29:44.414Z,10.00
2019-05-02T17:32:13.530Z,11.57
2019-05-02T17:34:42.609Z,13.83
2019-05-02T17:37:14.071Z,12.88
2019-05-02T17:39:45.983Z,12.73
2019-05-02T17:42:16.948Z,11.90
2019-05-02T17:44:44.193Z,12.20
2019-05-02T17:47:14.295Z,11.73
2019-05-02T17:49:43.565Z,9.75
2019-05-02T17:52:19.863Z,13.08
2019-05-02T17:54:45.173Z,10.00
2019-05-02T17:57:14.308Z,9.93
2019-05-02T17:59:43.447Z,12.10
2019-05-02T18:02:15.940Z,10.03
2019-05-02T18:04:46.598Z,9.90
2019-05-02T18:07:14.159Z,11.18
2019-05-02T18:09:43.354Z,12.37
2019-05-02T18:12:16.202Z,11.03
2019-05-02T18:14:45.090Z,13.13
2019-05-02T18:17:14.186Z,10.80
2019-05-02T18:19:43.286Z,9.63
2019-05-02T18:22:23.484Z,12.68
2019-05-02T18:24:46.340Z,12.75
2019-05-02T18:27:14.443Z,10.50
2019-05-02T18:29:45.609Z,12.98
2019-05-02T18:32:17.490Z,11.35
2019-05-02T18:34:45.271Z,16.77
2019-05-02T18:37:14.416Z,10.78
2019-05-02T18:39:49.724Z,11.15
2019-05-02T18:42:16.589Z,10.93
2019-05-02T18:44:48.214Z,13.28
2019-05-02T18:47:20.376Z,13.88
2019-05-02T18:49:47.094Z,14.45
2019-05-02T18:52:16.292Z,12.70
2019-05-02T18:54:47.350Z,12.45
2019-05-02T18:57:17.130Z,16.00
2019-05-02T18:59:47.162Z,12.07
2019-05-02T19:02:16.370Z,11.57
2019-05-02T19:04:45.528Z,13.72
2019-05-02T19:07:15.942Z,14.30
2019-05-02T19:09:51.167Z,12.85
2019-05-02T19:12:22.364Z,15.63
2019-05-02T19:14:46.974Z,16.15
2019-05-02T19:17:16.125Z,14.40
2019-05-02T19:19:45.269Z,15.43
2019-05-02T19:22:17.091Z,15.63
2019-05-02T19:24:45.198Z,16.12
2019-05-02T19:27:15.982Z,15.78
2019-05-02T19:29:48.087Z,17.12
2019-05-02T19:32:17.562Z,14.83
2019-05-02T19:34:46.929Z,17.77
2019-05-02T19:37:16.079Z,17.25
2019-05-02T19:39:48.792Z,17.57
2019-05-02T19:42:21.649Z,18.70
2019-05-02T19:44:47.929Z,16.42
2019-05-02T19:47:17.700Z,15.50
2019-05-02T19:49:51.729Z,16.45
2019-05-02T19:52:17.858Z,17.17
2019-05-02T19:54:47.158Z,16.95
2019-05-02T19:57:17.248Z,18.70
2019-05-02T19:59:47.117Z,21.02
2019-05-02T20:02:16.275Z,19.95
2019-05-02T20:04:45.423Z,18.25
2019-05-02T20:07:14.598Z,21.93
2019-05-02T20:09:47.141Z,29.98
2019-05-02T20:12:15.736Z,28.20
2019-05-02T20:14:47.560Z,30.50
2019-05-02T20:17:19.952Z,33.53
2019-05-02T20:19:48.479Z,36.70
2019-05-02T20:22:17.552Z,33.90
2019-05-02T20:24:55.386Z,35.20
2019-05-02T20:27:22.477Z,33.28
2019-05-02T20:29:52.234Z,36.20
2019-05-02T20:32:22.117Z,37.63
2019-05-02T20:34:51.478Z,40.23
2019-05-02T20:37:22.132Z,36.88
2019-05-02T20:39:51.425Z,39.25
2019-05-02T20:42:20.531Z,37.35
2019-05-02T20:44:49.740Z,36.98
2019-05-02T20:47:21.994Z,39.75
2019-05-02T20:49:51.847Z,40.73
2019-05-02T20:52:21.902Z,39.38
2019-05-02T20:54:52.407Z,38.98
2019-05-02T20:57:21.879Z,41.50
2019-05-02T20:59:52.485Z,38.65
2019-05-02T21:02:22.240Z,40.20
2019-05-02T21:04:52.259Z,41.55
2019-05-02T21:07:29.484Z,39.08
2019-05-02T21:10:02.948Z,38.88
2019-05-02T21:12:32.235Z,37.45
2019-05-02T21:15:01.774Z,37.48
2019-05-02T21:17:32.682Z,39.65
2019-05-02T21:20:02.058Z,37.98
2019-05-02T21:22:32.728Z,37.83
2019-05-02T21:25:02.449Z,33.80
2019-05-02T21:27:32.397Z,36.63
2019-05-02T21:30:02.662Z,36.53
2019-05-02T21:32:32.193Z,38.58
2019-05-02T21:35:02.748Z,37.20
2019-05-02T21:37:32.102Z,34.23
2019-05-02T21:40:02.781Z,32.53
2019-05-02T21:42:32.173Z,32.65
2019-05-02T21:45:02.424Z,32.23
2019-05-02T21:47:31.904Z,30.97
2019-05-02T21:50:05.764Z,29.55
2019-05-02T21:52:36.584Z,30.65
2019-05-02T21:55:12.391Z,31.10
2019-05-02T21:57:41.614Z,28.98
2019-05-02T22:00:15.648Z,28.17
2019-05-02T22:02:44.780Z,24.67
2019-05-02T22:05:14.057Z,27.98
2019-05-02T22:07:46.107Z,28.52
2019-05-02T22:10:15.449Z,26.80
2019-05-02T22:12:44.692Z,24.32
2019-05-02T22:15:13.951Z,23.80
2019-05-02T22:17:43.142Z,23.25
2019-05-02T22:20:12.423Z,22.60
2019-05-02T22:22:42.651Z,26.50
2019-05-02T22:25:12.045Z,22.75
2019-05-02T22:27:41.221Z,22.93
2019-05-02T22:30:12.337Z,22.17
2019-05-02T22:32:42.761Z,22.87
2019-05-02T22:35:12.299Z,21.35
2019-05-02T22:37:43.159Z,21.00
2019-05-02T22:40:18.531Z,21.20
2019-05-02T22:42:47.703Z,19.23
2019-05-02T22:45:16.887Z,21.55
2019-05-02T22:47:46.137Z,20.15
2019-05-02T22:50:15.246Z,21.95
2019-05-02T22:52:44.434Z,19.10
2019-05-02T22:55:13.752Z,19.85
2019-05-02T22:57:43.949Z,19.10
2019-05-02T23:00:13.982Z,19.07
2019-05-02T23:02:43.179Z,19.52
2019-05-02T23:05:12.517Z,18.80
2019-05-02T23:07:41.976Z,17.55
2019-05-02T23:10:12.675Z,17.82
2019-05-02T23:12:42.411Z,18.35
2019-05-02T23:15:12.585Z,17.05
2019-05-02T23:17:42.775Z,18.02
2019-05-02T23:20:12.839Z,20.25
2019-05-02T23:22:42.062Z,20.02
2019-05-02T23:25:14.306Z,18.40
2019-05-02T23:27:48.049Z,19.07
2019-05-02T23:30:19.433Z,20.72
2019-05-02T23:32:48.594Z,20.60
2019-05-02T23:35:17.787Z,19.07
2019-05-02T23:37:46.950Z,19.35
2019-05-02T23:40:16.384Z,19.95
2019-05-02T23:42:45.550Z,18.12
2019-05-02T23:45:14.994Z,17.07
2019-05-02T23:47:45.834Z,16.25
2019-05-02T23:50:15.347Z,16.95
2019-05-02T23:52:44.543Z,16.50
2019-05-02T23:55:13.816Z,16.62
2019-05-02T23:57:43.023Z,14.35
